Time;durP1;ratioP1;P1;durP2;ratioP2;P2;SDS_P1;SDS_P2;PMS_P1;PMS_P2;Temp;Humidity;BMP_temperature;BMP_pressure;BME280_temperature;BME280_humidity;BME280_pressure;Samples;Min_cycle;Max_cycle;Signal;HPM_P1;HPM_P2
2024/03/27 00:01:57;;;;;;;56.05;53.17;;;;;;;;;;5115185;27;20024;-54
2024/03/27 00:04:23;;;;;;;57.15;54.10;;;;;;;;;;5098202;27;20032;-55
2024/03/27 00:06:48;;;;;;;53.17;50.47;;;;;;;;;;5114352;27;20479;-55
2024/03/27 00:09:14;;;;;;;58.40;55.42;;;;;;;;;;5116349;27;20035;-54
2024/03/27 00:11:40;;;;;;;60.08;56.75;;;;;;;;;;5112847;27;20038;-54
2024/03/27 00:14:05;;;;;;;60.00;56.92;;;;;;;;;;5113007;27;20542;-54
2024/03/27 00:16:31;;;;;;;52.95;50.25;;;;;;;;;;5113977;27;20035;-53
2024/03/27 00:18:56;;;;;;;55.03;52.08;;;;;;;;;;5112682;27;20027;-53
2024/03/27 00:21:21;;;;;;;51.92;49.28;;;;;;;;;;5112638;27;20661;-54
2024/03/27 00:23:47;;;;;;;55.45;52.67;;;;;;;;;;5114924;27;20148;-53
2024/03/27 00:26:12;;;;;;;53.75;51.00;;;;;;;;;;5113284;27;20039;-50
2024/03/27 00:28:37;;;;;;;58.05;55.13;;;;;;;;;;5116203;27;20030;-48
2024/03/27 00:31:04;;;;;;;54.28;51.47;;;;;;;;;;5115701;27;20023;-50
2024/03/27 00:33:29;;;;;;;52.88;50.20;;;;;;;;;;5098352;27;20039;-50
2024/03/27 00:35:56;;;;;;;58.22;55.30;;;;;;;;;;5116546;27;20103;-51
2024/03/27 00:38:22;;;;;;;56.00;53.17;;;;;;;;;;5116738;27;20117;-50
2024/03/27 00:40:48;;;;;;;53.45;50.75;;;;;;;;;;5113096;27;21064;-52
2024/03/27 00:43:14;;;;;;;51.85;49.15;;;;;;;;;;5116149;27;20042;-48
2024/03/27 00:45:40;;;;;;;60.28;57.17;;;;;;;;;;5113190;27;20042;-51
2024/03/27 00:48:05;;;;;;;57.35;54.38;;;;;;;;;;5113585;27;20514;-51
2024/03/27 00:50:31;;;;;;;52.63;49.90;;;;;;;;;;5110647;27;20024;-54
2024/03/27 00:52:57;;;;;;;58.95;55.97;;;;;;;;;;5111758;27;20035;-55
2024/03/27 00:55:22;;;;;;;50.50;47.95;;;;;;;;;;5110249;27;20039;-53
2024/03/27 00:57:48;;;;;;;54.85;52.08;;;;;;;;;;5110947;27;20586;-53
2024/03/27 01:00:16;;;;;;;55.63;52.55;;;;;;;;;;5115880;27;20046;-54
2024/03/27 01:02:43;;;;;;;54.03;51.20;;;;;;;;;;5111183;27;20027;-55
2024/03/27 01:05:08;;;;;;;60.33;57.28;;;;;;;;;;5115244;27;20039;-52
2024/03/27 01:07:34;;;;;;;56.85;54.00;;;;;;;;;;5115301;27;20042;-54
2024/03/27 01:09:59;;;;;;;57.33;54.08;;;;;;;;;;5112878;28;20140;-52
2024/03/27 01:12:25;;;;;;;62.28;59.13;;;;;;;;;;5113990;28;20064;-52
2024/03/27 01:14:51;;;;;;;58.13;55.03;;;;;;;;;;5111420;28;20467;-52
2024/03/27 01:17:16;;;;;;;52.40;49.70;;;;;;;;;;5116048;28;20031;-53
2024/03/27 01:19:42;;;;;;;54.30;51.53;;;;;;;;;;5111525;28;20410;-54
2024/03/27 01:22:07;;;;;;;59.92;56.78;;;;;;;;;;5115551;28;20031;-49
2024/03/27 01:24:33;;;;;;;63.00;59.78;;;;;;;;;;5112620;28;20032;-50
2024/03/27 01:26:58;;;;;;;61.55;58.47;;;;;;;;;;5112423;28;20043;-52
2024/03/27 01:29:23;;;;;;;60.47;57.40;;;;;;;;;;5113557;28;20020;-54
2024/03/27 01:31:49;;;;;;;61.92;58.80;;;;;;;;;;5113865;28;20055;-53
2024/03/27 01:34:14;;;;;;;57.22;54.25;;;;;;;;;;5113294;28;20032;-50
2024/03/27 01:36:39;;;;;;;59.20;56.20;;;;;;;;;;5110029;28;20024;-65
2024/03/27 01:39:04;;;;;;;63.85;60.60;;;;;;;;;;5111986;28;20032;-66
2024/03/27 01:41:30;;;;;;;65.05;61.80;;;;;;;;;;5110254;28;20058;-66
2024/03/27 01:43:55;;;;;;;61.08;57.90;;;;;;;;;;5110535;28;20109;-66
2024/03/27 01:46:23;;;;;;;67.78;64.35;;;;;;;;;;5113656;28;20046;-66
2024/03/27 01:48:49;;;;;;;64.57;60.75;;;;;;;;;;5110109;28;20284;-65
2024/03/27 01:51:16;;;;;;;69.47;66.00;;;;;;;;;;5117073;28;20047;-65
2024/03/27 01:53:41;;;;;;;63.25;59.97;;;;;;;;;;5113857;28;20069;-66
2024/03/27 01:56:06;;;;;;;68.28;64.28;;;;;;;;;;5111833;28;20035;-66
2024/03/27 01:58:32;;;;;;;63.17;59.97;;;;;;;;;;5109705;28;20100;-52
2024/03/27 02:00:58;;;;;;;65.53;62.17;;;;;;;;;;5112917;28;20024;-56
2024/03/27 02:03:23;;;;;;;71.53;67.95;;;;;;;;;;5112364;28;20661;-53
2024/03/27 02:05:49;;;;;;;67.78;64.38;;;;;;;;;;5116226;27;20423;-52
2024/03/27 02:08:15;;;;;;;70.32;66.80;;;;;;;;;;5114346;27;20027;-52
2024/03/27 02:10:41;;;;;;;65.22;61.60;;;;;;;;;;5115144;27;20038;-53
2024/03/27 02:13:06;;;;;;;57.38;54.40;;;;;;;;;;5096974;27;20066;-53
2024/03/27 02:15:32;;;;;;;56.90;53.85;;;;;;;;;;5113819;27;20472;-53
2024/03/27 02:17:57;;;;;;;60.05;56.97;;;;;;;;;;5113280;27;20093;-52
2024/03/27 02:20:23;;;;;;;64.90;61.53;;;;;;;;;;5118654;27;20628;-54
2024/03/27 02:22:53;;;;;;;69.43;65.85;;;;;;;;;;5113450;27;20067;-54
2024/03/27 02:25:25;;;;;;;70.25;66.72;;;;;;;;;;5117380;27;20034;-51
2024/03/27 02:27:50;;;;;;;71.88;68.20;;;;;;;;;;5113928;27;20042;-66
2024/03/27 02:30:16;;;;;;;73.55;69.88;;;;;;;;;;5120339;27;20456;-65
2024/03/27 02:32:41;;;;;;;75.03;71.28;;;;;;;;;;5115670;27;20106;-65
2024/03/27 02:35:11;;;;;;;72.80;69.10;;;;;;;;;;5097091;27;20117;-65
2024/03/27 02:37:37;;;;;;;78.20;74.30;;;;;;;;;;5116323;27;20031;-64
2024/03/27 02:40:03;;;;;;;72.25;68.63;;;;;;;;;;5115392;27;20035;-65
2024/03/27 02:42:28;;;;;;;71.97;68.32;;;;;;;;;;5116507;27;20490;-64
2024/03/27 02:44:53;;;;;;;75.15;71.43;;;;;;;;;;5117211;27;20338;-65
2024/03/27 02:47:19;;;;;;;75.40;70.95;;;;;;;;;;5098450;27;20035;-65
2024/03/27 02:49:45;;;;;;;67.78;64.35;;;;;;;;;;5117169;27;20027;-65
2024/03/27 02:52:10;;;;;;;67.30;63.95;;;;;;;;;;5116919;27;20046;-64
2024/03/27 02:54:35;;;;;;;78.30;74.35;;;;;;;;;;5115308;27;20612;-65
2024/03/27 02:57:01;;;;;;;75.22;71.47;;;;;;;;;;5116044;27;20046;-65
2024/03/27 02:59:26;;;;;;;73.82;70.15;;;;;;;;;;5114935;27;20035;-65
2024/03/27 03:01:52;;;;;;;77.40;73.47;;;;;;;;;;5115003;27;20039;-65
2024/03/27 03:04:17;;;;;;;74.20;70.50;;;;;;;;;;5113894;27;20869;-65
2024/03/27 03:06:42;;;;;;;75.70;71.88;;;;;;;;;;5115248;27;20027;-64
2024/03/27 03:09:08;;;;;;;76.07;72.28;;;;;;;;;;5098206;27;20437;-64
2024/03/27 03:11:34;;;;;;;73.35;69.65;;;;;;;;;;5112699;27;20460;-52
2024/03/27 03:13:59;;;;;;;73.25;69.55;;;;;;;;;;5116492;27;20068;-64
2024/03/27 03:16:25;;;;;;;75.35;71.55;;;;;;;;;;5114229;27;20035;-65
2024/03/27 03:18:51;;;;;;;72.88;69.20;;;;;;;;;;5116335;27;20494;-65
2024/03/27 03:21:16;;;;;;;68.43;65.00;;;;;;;;;;5116650;27;20035;-65
2024/03/27 03:23:42;;;;;;;65.65;62.33;;;;;;;;;;5117536;27;20369;-65
2024/03/27 03:26:07;;;;;;;69.78;66.18;;;;;;;;;;5094247;27;20028;-65
2024/03/27 03:28:32;;;;;;;73.05;69.15;;;;;;;;;;5098785;27;20031;-65
2024/03/27 03:31:04;;;;;;;69.53;66.03;;;;;;;;;;5115293;27;20027;-65
2024/03/27 03:33:30;;;;;;;67.03;63.65;;;;;;;;;;5117649;27;20104;-65
2024/03/27 03:35:56;;;;;;;64.05;60.83;;;;;;;;;;5114915;27;20035;-65
2024/03/27 03:38:22;;;;;;;64.93;61.67;;;;;;;;;;5114917;27;20039;-65
2024/03/27 03:40:50;;;;;;;64.13;60.80;;;;;;;;;;5115047;27;20034;-65
2024/03/27 03:43:15;;;;;;;63.55;60.28;;;;;;;;;;5116978;27;20050;-65
2024/03/27 03:45:40;;;;;;;65.22;61.92;;;;;;;;;;5098446;27;20027;-65
2024/03/27 03:48:06;;;;;;;61.25;58.17;;;;;;;;;;5115309;27;20050;-50
2024/03/27 03:50:32;;;;;;;62.63;59.33;;;;;;;;;;5118090;27;20027;-50
2024/03/27 03:52:57;;;;;;;57.13;54.22;;;;;;;;;;5096506;27;20027;-49
2024/03/27 03:55:22;;;;;;;59.13;55.83;;;;;;;;;;5113279;27;20091;-50
2024/03/27 03:57:48;;;;;;;54.10;51.38;;;;;;;;;;5095937;27;20031;-51
2024/03/27 04:00:20;;;;;;;56.17;53.35;;;;;;;;;;5116457;27;20106;-49
2024/03/27 04:02:47;;;;;;;57.22;54.28;;;;;;;;;;5115357;27;20050;-51
2024/03/27 04:05:13;;;;;;;59.80;56.75;;;;;;;;;;5113890;27;20118;-51
2024/03/27 04:07:38;;;;;;;57.80;54.90;;;;;;;;;;5116684;27;20155;-50
2024/03/27 04:10:04;;;;;;;55.78;52.95;;;;;;;;;;5110141;27;20770;-50
2024/03/27 04:12:30;;;;;;;58.15;55.22;;;;;;;;;;5117683;27;20035;-54
2024/03/27 04:14:55;;;;;;;54.75;51.97;;;;;;;;;;5096519;27;20106;-52
2024/03/27 04:17:21;;;;;;;52.53;49.88;;;;;;;;;;5116653;27;20074;-50
2024/03/27 04:19:47;;;;;;;53.17;50.40;;;;;;;;;;5113583;27;20038;-52
2024/03/27 04:22:12;;;;;;;50.60;48.03;;;;;;;;;;5114253;27;20040;-53
2024/03/27 04:24:37;;;;;;;53.03;50.33;;;;;;;;;;5114692;27;20141;-51
2024/03/27 04:27:03;;;;;;;53.15;50.45;;;;;;;;;;5114013;27;21208;-51
2024/03/27 04:29:30;;;;;;;53.33;48.80;;;;;;;;;;5115775;27;20501;-53
2024/03/27 04:31:55;;;;;;;53.72;50.97;;;;;;;;;;5114960;27;20381;-50
2024/03/27 04:34:20;;;;;;;51.13;48.50;;;;;;;;;;5114457;27;20034;-52
2024/03/27 04:36:46;;;;;;;51.05;48.45;;;;;;;;;;5115200;27;20041;-55
2024/03/27 04:39:11;;;;;;;51.78;49.10;;;;;;;;;;5111550;27;20035;-53
2024/03/27 04:41:37;;;;;;;48.97;46.45;;;;;;;;;;5113069;27;20035;-54
2024/03/27 04:44:02;;;;;;;43.67;41.45;;;;;;;;;;5115997;27;20062;-54
2024/03/27 04:46:27;;;;;;;47.50;44.92;;;;;;;;;;5115626;27;20051;-51
2024/03/27 04:48:53;;;;;;;50.38;47.80;;;;;;;;;;5114906;27;20027;-51
2024/03/27 04:51:18;;;;;;;51.53;48.92;;;;;;;;;;5114776;27;20480;-53
2024/03/27 04:53:43;;;;;;;50.00;47.30;;;;;;;;;;5112284;27;20083;-54
2024/03/27 04:56:09;;;;;;;53.10;50.30;;;;;;;;;;5096041;27;20035;-54
2024/03/27 04:58:34;;;;;;;48.58;46.08;;;;;;;;;;5115378;27;20074;-53
2024/03/27 05:00:59;;;;;;;46.42;44.03;;;;;;;;;;5113357;27;20028;-53
2024/03/27 05:03:25;;;;;;;51.97;49.28;;;;;;;;;;5111677;28;20036;-51
2024/03/27 05:05:50;;;;;;;49.90;47.38;;;;;;;;;;5113570;27;20035;-51
2024/03/27 05:08:16;;;;;;;46.00;43.65;;;;;;;;;;5093544;28;20108;-52
2024/03/27 05:10:41;;;;;;;47.83;45.33;;;;;;;;;;5109989;28;20023;-55
2024/03/27 05:13:06;;;;;;;43.05;40.78;;;;;;;;;;5112629;28;20035;-53
2024/03/27 05:15:32;;;;;;;45.35;42.85;;;;;;;;;;5115348;28;20046;-52
2024/03/27 05:17:58;;;;;;;44.47;42.08;;;;;;;;;;5114479;28;20043;-53
2024/03/27 05:20:24;;;;;;;46.15;43.78;;;;;;;;;;5094988;28;20028;-53
2024/03/27 05:22:50;;;;;;;41.28;39.17;;;;;;;;;;5113814;28;20036;-54
2024/03/27 05:25:15;;;;;;;39.70;37.50;;;;;;;;;;5112380;28;20031;-52
2024/03/27 05:27:41;;;;;;;43.22;40.83;;;;;;;;;;5112545;28;20108;-51
2024/03/27 05:30:07;;;;;;;40.53;38.28;;;;;;;;;;5112417;28;20105;-53
2024/03/27 05:32:32;;;;;;;41.03;38.60;;;;;;;;;;5114658;28;20063;-53
2024/03/27 05:34:57;;;;;;;38.90;36.20;;;;;;;;;;5113780;28;20083;-51
2024/03/27 05:37:23;;;;;;;37.95;35.90;;;;;;;;;;5115296;28;20043;-51
2024/03/27 05:39:48;;;;;;;37.30;35.30;;;;;;;;;;5097679;27;20031;-53
2024/03/27 05:42:13;;;;;;;36.38;34.42;;;;;;;;;;5116453;27;20031;-51
2024/03/27 05:44:39;;;;;;;33.42;31.67;;;;;;;;;;5118811;27;20409;-53
2024/03/27 05:47:04;;;;;;;30.77;29.10;;;;;;;;;;5117072;27;20042;-54
2024/03/27 05:49:29;;;;;;;32.03;30.27;;;;;;;;;;5116654;27;20039;-54
2024/03/27 05:51:55;;;;;;;30.15;28.38;;;;;;;;;;5115234;27;20031;-53
2024/03/27 05:54:20;;;;;;;30.33;28.63;;;;;;;;;;5117679;27;21436;-53
2024/03/27 05:56:46;;;;;;;28.92;27.33;;;;;;;;;;5100911;27;20341;-54
2024/03/27 05:59:11;;;;;;;31.50;29.80;;;;;;;;;;5117923;27;20031;-52
2024/03/27 06:01:37;;;;;;;32.85;31.05;;;;;;;;;;5100056;27;20392;-48
2024/03/27 06:04:03;;;;;;;31.35;29.67;;;;;;;;;;5113549;27;20035;-56
2024/03/27 06:06:28;;;;;;;29.75;28.10;;;;;;;;;;5117857;27;20038;-56
2024/03/27 06:08:53;;;;;;;31.60;29.88;;;;;;;;;;5119175;27;20043;-50
2024/03/27 06:11:19;;;;;;;31.05;28.95;;;;;;;;;;5116911;27;20020;-51
2024/03/27 06:13:44;;;;;;;29.58;28.05;;;;;;;;;;5117248;27;20042;-49
2024/03/27 06:16:09;;;;;;;27.80;26.33;;;;;;;;;;5113914;27;20023;-52
2024/03/27 06:18:35;;;;;;;27.48;25.98;;;;;;;;;;5114423;27;20039;-54
2024/03/27 06:21:00;;;;;;;26.75;25.35;;;;;;;;;;5114542;27;20036;-55
2024/03/27 06:23:26;;;;;;;30.23;28.10;;;;;;;;;;5115663;27;21165;-52
2024/03/27 06:25:55;;;;;;;25.70;24.30;;;;;;;;;;5116283;27;20505;-53
2024/03/27 06:28:21;;;;;;;25.95;24.45;;;;;;;;;;5115121;27;20032;-54
2024/03/27 06:30:46;;;;;;;28.90;27.27;;;;;;;;;;5115364;27;20110;-54
2024/03/27 06:33:11;;;;;;;25.10;23.40;;;;;;;;;;5114149;27;20034;-56
2024/03/27 06:35:37;;;;;;;26.98;25.48;;;;;;;;;;5117523;27;20044;-52
2024/03/27 06:38:02;;;;;;;35.20;33.08;;;;;;;;;;5099056;27;20062;-51
2024/03/27 06:40:28;;;;;;;30.85;29.25;;;;;;;;;;5113464;27;20390;-52
2024/03/27 06:42:53;;;;;;;37.45;35.25;;;;;;;;;;5113172;27;20095;-54
2024/03/27 06:45:18;;;;;;;33.13;31.33;;;;;;;;;;5115772;27;20532;-55
2024/03/27 06:47:44;;;;;;;34.22;32.22;;;;;;;;;;5098727;27;20488;-55
2024/03/27 06:50:10;;;;;;;42.13;39.92;;;;;;;;;;5098102;27;20122;-53
2024/03/27 06:52:36;;;;;;;40.13;38.05;;;;;;;;;;5113340;27;20020;-53
2024/03/27 06:55:01;;;;;;;41.83;39.63;;;;;;;;;;5078619;27;20179;-54
2024/03/27 06:57:26;;;;;;;43.20;39.88;;;;;;;;;;5113263;27;20104;-55
2024/03/27 06:59:52;;;;;;;43.00;40.55;;;;;;;;;;5096823;27;20030;-55
2024/03/27 07:02:17;;;;;;;45.70;43.40;;;;;;;;;;5114864;27;20062;-53
2024/03/27 07:04:43;;;;;;;47.15;44.75;;;;;;;;;;5113812;27;20469;-55
2024/03/27 07:07:08;;;;;;;46.70;44.28;;;;;;;;;;5117528;27;20035;-65
2024/03/27 07:09:34;;;;;;;43.83;41.55;;;;;;;;;;5115419;27;20833;-66
2024/03/27 07:11:59;;;;;;;44.70;42.35;;;;;;;;;;5115212;27;20067;-66
2024/03/27 07:14:25;;;;;;;46.47;44.08;;;;;;;;;;5095703;27;20473;-66
2024/03/27 07:16:50;;;;;;;48.95;46.42;;;;;;;;;;5117214;27;20031;-66
2024/03/27 07:19:15;;;;;;;50.88;48.28;;;;;;;;;;5119651;27;20404;-66
2024/03/27 07:21:42;;;;;;;51.65;49.03;;;;;;;;;;5117492;27;20043;-66
2024/03/27 07:24:08;;;;;;;55.78;52.78;;;;;;;;;;5095546;27;20042;-66
2024/03/27 07:26:38;;;;;;;54.72;51.95;;;;;;;;;;5100187;27;20035;-66
2024/03/27 07:29:06;;;;;;;55.03;52.20;;;;;;;;;;5118127;27;20041;-66
2024/03/27 07:31:32;;;;;;;59.72;56.33;;;;;;;;;;5115805;27;20170;-65
2024/03/27 07:33:58;;;;;;;62.33;58.63;;;;;;;;;;5113311;27;20130;-66
2024/03/27 07:36:23;;;;;;;56.15;53.17;;;;;;;;;;5111768;27;20114;-65
2024/03/27 07:38:50;;;;;;;52.78;50.10;;;;;;;;;;5095172;27;20039;-65
2024/03/27 07:41:15;;;;;;;50.40;47.80;;;;;;;;;;5094314;28;20038;-66
2024/03/27 07:43:41;;;;;;;59.35;56.38;;;;;;;;;;5113833;27;20038;-66
2024/03/27 07:46:07;;;;;;;61.22;58.10;;;;;;;;;;5077041;27;20358;-66
2024/03/27 07:48:33;;;;;;;58.25;55.25;;;;;;;;;;5111367;27;20031;-66
2024/03/27 07:50:59;;;;;;;59.20;56.20;;;;;;;;;;5112920;27;20119;-67
2024/03/27 07:53:24;;;;;;;54.95;52.15;;;;;;;;;;5109052;27;20024;-67
2024/03/27 07:55:57;;;;;;;51.95;49.17;;;;;;;;;;5113966;27;20463;-67
2024/03/27 07:58:22;;;;;;;56.20;53.30;;;;;;;;;;5114141;27;20023;-67
2024/03/27 08:00:49;;;;;;;53.70;50.90;;;;;;;;;;5115355;27;20049;-67
2024/03/27 08:03:15;;;;;;;52.28;49.63;;;;;;;;;;5095394;27;20028;-67
2024/03/27 08:05:40;;;;;;;43.15;40.95;;;;;;;;;;5116571;27;20092;-67
2024/03/27 08:08:05;;;;;;;42.55;40.28;;;;;;;;;;5112891;27;20027;-56
2024/03/27 08:10:31;;;;;;;39.63;37.55;;;;;;;;;;5114688;27;20560;-56
2024/03/27 08:12:56;;;;;;;51.08;48.50;;;;;;;;;;5097452;27;20126;-55
2024/03/27 08:15:21;;;;;;;58.67;55.67;;;;;;;;;;5113102;27;20035;-56
2024/03/27 08:17:47;;;;;;;47.03;44.53;;;;;;;;;;5113633;27;20043;-56
2024/03/27 08:20:13;;;;;;;41.65;39.45;;;;;;;;;;5094571;27;20027;-67
2024/03/27 08:22:38;;;;;;;41.97;39.40;;;;;;;;;;5112996;27;20035;-66
2024/03/27 08:25:04;;;;;;;31.60;29.92;;;;;;;;;;5114402;27;20369;-67
2024/03/27 08:27:29;;;;;;;38.50;36.50;;;;;;;;;;5112260;27;20055;-67
2024/03/27 08:29:55;;;;;;;28.35;26.75;;;;;;;;;;5096170;27;20046;-67
2024/03/27 08:32:20;;;;;;;41.65;39.50;;;;;;;;;;5112165;27;20028;-67
2024/03/27 08:34:45;;;;;;;27.50;26.00;;;;;;;;;;5113546;27;20363;-67
2024/03/27 08:37:11;;;;;;;29.80;28.00;;;;;;;;;;5112449;27;20389;-66
2024/03/27 08:39:36;;;;;;;28.98;27.38;;;;;;;;;;5111331;27;20480;-66
2024/03/27 08:42:01;;;;;;;38.80;36.78;;;;;;;;;;5114488;27;20372;-65
2024/03/27 08:44:27;;;;;;;32.58;30.88;;;;;;;;;;5113251;27;20046;-64
2024/03/27 08:46:52;;;;;;;36.22;34.00;;;;;;;;;;5113223;27;20510;-67
2024/03/27 08:49:18;;;;;;;27.20;25.70;;;;;;;;;;5113955;27;20031;-66
2024/03/27 08:51:43;;;;;;;33.22;31.35;;;;;;;;;;5112477;27;20445;-66
2024/03/27 08:54:12;;;;;;;27.17;25.75;;;;;;;;;;5113560;27;20114;-67
2024/03/27 08:56:38;;;;;;;30.10;28.50;;;;;;;;;;5114447;27;20365;-67
2024/03/27 08:59:03;;;;;;;34.97;33.08;;;;;;;;;;5096900;27;20032;-67
2024/03/27 09:01:28;;;;;;;32.03;30.23;;;;;;;;;;5113629;27;20061;-66
2024/03/27 09:03:54;;;;;;;31.75;30.10;;;;;;;;;;5111777;27;20039;-65
2024/03/27 09:06:19;;;;;;;37.00;34.95;;;;;;;;;;5116066;27;20088;-64
2024/03/27 09:08:45;;;;;;;36.72;34.72;;;;;;;;;;5112938;27;20042;-65
2024/03/27 09:11:11;;;;;;;32.67;30.90;;;;;;;;;;5094081;28;20817;-65
2024/03/27 09:13:36;;;;;;;29.65;28.13;;;;;;;;;;5092545;27;21248;-65
2024/03/27 09:16:03;;;;;;;32.35;30.65;;;;;;;;;;5114269;28;20104;-65
2024/03/27 09:18:29;;;;;;;29.52;27.83;;;;;;;;;;5113146;28;20139;-65
2024/03/27 09:20:57;;;;;;;31.48;29.80;;;;;;;;;;5114871;28;20043;-65
2024/03/27 09:23:24;;;;;;;33.00;31.30;;;;;;;;;;5112105;28;20043;-65
2024/03/27 09:25:56;;;;;;;31.42;29.75;;;;;;;;;;5115140;28;20031;-65
2024/03/27 09:28:22;;;;;;;34.92;32.70;;;;;;;;;;5110418;28;20042;-65
2024/03/27 09:30:47;;;;;;;32.67;30.92;;;;;;;;;;5114299;28;20036;-66
2024/03/27 09:33:14;;;;;;;29.00;27.48;;;;;;;;;;5113871;28;20027;-66
2024/03/27 09:35:42;;;;;;;31.60;29.15;;;;;;;;;;5111637;28;20259;-66
2024/03/27 09:38:08;;;;;;;31.88;30.17;;;;;;;;;;5112450;28;20106;-65
2024/03/27 09:40:39;;;;;;;31.83;29.42;;;;;;;;;;5111828;28;20031;-66
2024/03/27 09:43:05;;;;;;;34.50;32.70;;;;;;;;;;5115321;28;20046;-66
2024/03/27 09:45:36;;;;;;;31.27;29.58;;;;;;;;;;5109377;28;20669;-66
2024/03/27 09:48:02;;;;;;;30.75;29.15;;;;;;;;;;5114172;28;20125;-66
2024/03/27 09:50:31;;;;;;;30.63;29.02;;;;;;;;;;5115476;28;20106;-66
2024/03/27 09:52:57;;;;;;;27.92;26.42;;;;;;;;;;5115212;28;20031;-66
2024/03/27 09:55:23;;;;;;;29.92;28.33;;;;;;;;;;5089468;28;20027;-66
2024/03/27 09:57:48;;;;;;;30.42;28.83;;;;;;;;;;5114519;28;20514;-66
2024/03/27 10:00:14;;;;;;;32.30;30.60;;;;;;;;;;5112421;28;20085;-66
2024/03/27 10:02:39;;;;;;;38.08;36.08;;;;;;;;;;5110826;28;20062;-66
2024/03/27 10:05:10;;;;;;;38.70;36.70;;;;;;;;;;5113976;28;20050;-66
2024/03/27 10:07:36;;;;;;;39.97;37.65;;;;;;;;;;5113022;28;20027;-66
2024/03/27 10:10:03;;;;;;;42.72;40.50;;;;;;;;;;5109960;28;20034;-66
2024/03/27 10:12:28;;;;;;;41.25;39.13;;;;;;;;;;5113371;28;20530;-66
2024/03/27 10:14:53;;;;;;;43.22;40.97;;;;;;;;;;5110645;28;20046;-66
2024/03/27 10:17:19;;;;;;;53.25;50.50;;;;;;;;;;5114482;28;20478;-66
2024/03/27 10:19:45;;;;;;;37.58;35.58;;;;;;;;;;5094500;28;20036;-66
2024/03/27 10:22:10;;;;;;;38.35;36.25;;;;;;;;;;5111462;28;20039;-66
2024/03/27 10:24:37;;;;;;;37.28;35.28;;;;;;;;;;5109305;28;21089;-67
2024/03/27 10:27:02;;;;;;;43.33;40.92;;;;;;;;;;5116525;27;20023;-66
2024/03/27 10:29:28;;;;;;;40.58;38.45;;;;;;;;;;5113255;27;20489;-66
2024/03/27 10:31:54;;;;;;;34.08;32.28;;;;;;;;;;5116782;27;20118;-66
2024/03/27 10:34:19;;;;;;;37.72;35.67;;;;;;;;;;5116714;27;20138;-66
2024/03/27 10:36:46;;;;;;;32.30;30.60;;;;;;;;;;5114788;27;20023;-66
2024/03/27 10:39:16;;;;;;;33.47;31.67;;;;;;;;;;5113742;27;20148;-66
2024/03/27 10:41:41;;;;;;;33.15;31.27;;;;;;;;;;5098240;27;20088;-66
2024/03/27 10:44:09;;;;;;;34.15;32.28;;;;;;;;;;5116309;27;20032;-66
2024/03/27 10:46:34;;;;;;;32.47;30.77;;;;;;;;;;5113478;27;20393;-66
2024/03/27 10:49:01;;;;;;;33.00;31.30;;;;;;;;;;5117427;27;20043;-66
2024/03/27 10:51:26;;;;;;;33.22;31.48;;;;;;;;;;5116369;27;20042;-66
2024/03/27 10:53:54;;;;;;;37.42;35.45;;;;;;;;;;5114405;27;20024;-66
2024/03/27 10:56:20;;;;;;;54.83;52.05;;;;;;;;;;5117077;27;20490;-66
2024/03/27 10:58:47;;;;;;;54.85;52.03;;;;;;;;;;5115906;27;20118;-66
2024/03/27 11:01:13;;;;;;;51.75;49.15;;;;;;;;;;5116366;27;20491;-66
2024/03/27 11:03:41;;;;;;;47.75;45.30;;;;;;;;;;5115893;27;20023;-66
2024/03/27 11:06:08;;;;;;;43.10;40.78;;;;;;;;;;5098514;27;20019;-66
2024/03/27 11:08:35;;;;;;;41.28;39.17;;;;;;;;;;5113725;27;20031;-66
2024/03/27 11:11:05;;;;;;;45.83;43.47;;;;;;;;;;5115213;27;20153;-67
2024/03/27 11:13:30;;;;;;;36.20;34.30;;;;;;;;;;5115258;27;20023;-66
2024/03/27 11:15:56;;;;;;;31.63;29.92;;;;;;;;;;5117180;27;20096;-66
2024/03/27 11:18:29;;;;;;;32.65;30.33;;;;;;;;;;5116052;27;20028;-66
2024/03/27 11:20:55;;;;;;;32.03;30.30;;;;;;;;;;5113106;27;20036;-67
2024/03/27 11:23:33;;;;;;;33.60;31.80;;;;;;;;;;5113364;27;20039;-66
2024/03/27 11:26:00;;;;;;;35.42;33.45;;;;;;;;;;5116222;27;20031;-66
2024/03/27 11:28:27;;;;;;;34.22;32.42;;;;;;;;;;5118206;27;20404;-65
2024/03/27 11:30:55;;;;;;;35.03;33.15;;;;;;;;;;5115832;27;20031;-66
2024/03/27 11:33:21;;;;;;;35.08;33.28;;;;;;;;;;5112371;27;20027;-66
2024/03/27 11:35:53;;;;;;;36.22;34.35;;;;;;;;;;5114946;27;20032;-66
2024/03/27 11:38:21;;;;;;;37.63;35.72;;;;;;;;;;5114235;27;20553;-66
2024/03/27 11:40:53;;;;;;;34.25;32.45;;;;;;;;;;5115764;27;20480;-66
2024/03/27 11:43:19;;;;;;;37.10;35.20;;;;;;;;;;5116754;27;21079;-66
2024/03/27 11:45:45;;;;;;;39.15;37.10;;;;;;;;;;5112994;27;20035;-66
2024/03/27 11:48:10;;;;;;;41.42;38.70;;;;;;;;;;5115407;27;20067;-66
2024/03/27 11:50:36;;;;;;;38.35;36.35;;;;;;;;;;5114442;27;20050;-66
2024/03/27 11:53:03;;;;;;;38.38;36.38;;;;;;;;;;5113391;27;20058;-66
2024/03/27 11:55:29;;;;;;;37.97;35.97;;;;;;;;;;5112473;27;20114;-66
2024/03/27 11:57:54;;;;;;;40.53;38.33;;;;;;;;;;5113292;27;20143;-66
2024/03/27 12:00:20;;;;;;;38.75;36.78;;;;;;;;;;5114046;27;20064;-66
2024/03/27 12:02:45;;;;;;;40.33;38.20;;;;;;;;;;5111213;27;20023;-66
2024/03/27 12:05:11;;;;;;;38.70;36.63;;;;;;;;;;5111747;27;20040;-66
2024/03/27 12:07:36;;;;;;;38.38;36.25;;;;;;;;;;5111905;27;20421;-66
2024/03/27 12:10:03;;;;;;;40.75;38.58;;;;;;;;;;5113186;27;20357;-67
2024/03/27 12:12:29;;;;;;;39.00;37.00;;;;;;;;;;5106491;27;20038;-65
2024/03/27 12:14:56;;;;;;;42.85;40.65;;;;;;;;;;5113238;27;20034;-65
2024/03/27 12:17:29;;;;;;;49.28;46.65;;;;;;;;;;5096569;27;20062;-65
2024/03/27 12:19:55;;;;;;;45.72;43.33;;;;;;;;;;5112638;27;20035;-67
2024/03/27 12:22:21;;;;;;;46.60;44.13;;;;;;;;;;5114633;27;20039;-66
2024/03/27 12:24:47;;;;;;;49.05;46.55;;;;;;;;;;5112113;27;20036;-65
2024/03/27 12:27:13;;;;;;;52.25;49.60;;;;;;;;;;5095205;27;20391;-64
2024/03/27 12:29:38;;;;;;;65.22;61.92;;;;;;;;;;5112203;27;20024;-66
2024/03/27 12:32:04;;;;;;;52.70;50.00;;;;;;;;;;5112746;27;20042;-66
2024/03/27 12:34:33;;;;;;;47.58;45.17;;;;;;;;;;5110844;27;20375;-65
2024/03/27 12:37:00;;;;;;;45.80;43.50;;;;;;;;;;5113326;27;20031;-66
2024/03/27 12:39:25;;;;;;;44.92;42.63;;;;;;;;;;5111328;27;20026;-66
2024/03/27 12:41:51;;;;;;;41.67;39.58;;;;;;;;;;5112169;27;20042;-65
2024/03/27 12:44:16;;;;;;;42.42;39.83;;;;;;;;;;5112179;27;20031;-65
2024/03/27 12:46:42;;;;;;;47.58;45.17;;;;;;;;;;5110970;27;20119;-65
2024/03/27 12:49:07;;;;;;;50.08;47.47;;;;;;;;;;5112426;27;20031;-67
2024/03/27 12:51:32;;;;;;;50.53;47.97;;;;;;;;;;5094299;28;20032;-66
2024/03/27 12:53:58;;;;;;;48.78;46.17;;;;;;;;;;5111070;27;20162;-67
2024/03/27 12:56:23;;;;;;;45.35;43.05;;;;;;;;;;5114862;27;20110;-65
2024/03/27 12:58:49;;;;;;;45.03;42.72;;;;;;;;;;5116215;27;20069;-66
2024/03/27 13:01:14;;;;;;;44.75;42.45;;;;;;;;;;5113195;27;20031;-66
2024/03/27 13:03:40;;;;;;;41.55;39.42;;;;;;;;;;5112345;27;20040;-66
2024/03/27 13:06:07;;;;;;;39.75;37.75;;;;;;;;;;5114785;27;20043;-65
2024/03/27 13:08:33;;;;;;;44.80;42.50;;;;;;;;;;5113573;27;20023;-65
2024/03/27 13:10:58;;;;;;;44.55;42.30;;;;;;;;;;5113035;27;20350;-65
2024/03/27 13:13:23;;;;;;;40.55;38.42;;;;;;;;;;5114450;28;20062;-65
2024/03/27 13:15:49;;;;;;;39.67;37.67;;;;;;;;;;5112483;28;20031;-65
2024/03/27 13:18:14;;;;;;;42.42;40.25;;;;;;;;;;5115291;28;20540;-65
2024/03/27 13:20:40;;;;;;;40.90;38.80;;;;;;;;;;5094807;28;20436;-65
2024/03/27 13:23:05;;;;;;;41.95;39.85;;;;;;;;;;5113301;28;20188;-65
2024/03/27 13:25:30;;;;;;;42.65;40.45;;;;;;;;;;5112939;28;20058;-65
2024/03/27 13:27:56;;;;;;;41.45;39.35;;;;;;;;;;5102919;28;20042;-66
2024/03/27 13:30:21;;;;;;;39.15;37.05;;;;;;;;;;5112145;28;20027;-66
2024/03/27 13:32:47;;;;;;;37.17;35.17;;;;;;;;;;5111097;28;20023;-65
2024/03/27 13:35:13;;;;;;;38.53;36.53;;;;;;;;;;5113299;28;20036;-65
2024/03/27 13:37:39;;;;;;;41.25;39.15;;;;;;;;;;5106842;28;20046;-66
2024/03/27 13:40:05;;;;;;;40.17;38.15;;;;;;;;;;5106810;28;20035;-65
2024/03/27 13:42:31;;;;;;;39.75;37.75;;;;;;;;;;5107025;28;20043;-65
2024/03/27 13:44:56;;;;;;;38.35;36.35;;;;;;;;;;5106923;28;20019;-66
2024/03/27 13:47:21;;;;;;;35.67;33.78;;;;;;;;;;5112607;28;20050;-66
2024/03/27 13:49:47;;;;;;;34.90;33.10;;;;;;;;;;5113381;28;20589;-66
2024/03/27 13:52:12;;;;;;;32.50;30.80;;;;;;;;;;5111056;28;20098;-66
2024/03/27 13:54:39;;;;;;;34.22;32.45;;;;;;;;;;5112507;28;20038;-66
2024/03/27 13:57:05;;;;;;;33.42;31.73;;;;;;;;;;5112097;28;20035;-66
2024/03/27 13:59:30;;;;;;;33.83;32.13;;;;;;;;;;5112913;28;20032;-66
2024/03/27 14:01:56;;;;;;;32.85;31.15;;;;;;;;;;5116020;27;20099;-65
2024/03/27 14:04:22;;;;;;;35.05;33.25;;;;;;;;;;5117047;27;20032;-66
2024/03/27 14:06:47;;;;;;;35.20;33.38;;;;;;;;;;5114060;27;20095;-65
2024/03/27 14:09:12;;;;;;;36.92;35.03;;;;;;;;;;5114881;27;20466;-65